sensor_id;sensor_type;location;lat;lon;timestamp;P1;durP1;ratioP1;P2;durP2;ratioP2
41305;SDS011;27051;50.376;19.152;2023-03-01T00:01:30;194.00;;;79.40;;
41305;SDS011;27051;50.376;19.152;2023-03-01T00:03:57;184.60;;;75.30;;
41305;SDS011;27051;50.376;19.152;2023-03-01T00:06:25;195.00;;;79.60;;
41305;SDS011;27051;50.376;19.152;2023-03-01T00:08:52;191.40;;;75.00;;
41305;SDS011;27051;50.376;19.152;2023-03-01T00:11:23;176.60;;;73.90;;
41305;SDS011;27051;50.376;19.152;2023-03-01T00:13:54;178.60;;;72.50;;
41305;SDS011;27051;50.376;19.152;2023-03-01T00:16:23;172.00;;;70.40;;
41305;SDS011;27051;50.376;19.152;2023-03-01T00:21:21;181.90;;;69.00;;
41305;SDS011;27051;50.376;19.152;2023-03-01T00:23:48;156.70;;;65.60;;
41305;SDS011;27051;50.376;19.152;2023-03-01T00:26:15;162.30;;;66.90;;
41305;SDS011;27051;50.376;19.152;2023-03-01T00:28:42;149.90;;;63.50;;
41305;SDS011;27051;50.376;19.152;2023-03-01T00:31:16;154.00;;;64.90;;
41305;SDS011;27051;50.376;19.152;2023-03-01T00:33:45;156.00;;;63.60;;
41305;SDS011;27051;50.376;19.152;2023-03-01T00:36:13;153.40;;;66.00;;
41305;SDS011;27051;50.376;19.152;2023-03-01T00:38:41;155.70;;;64.00;;
41305;SDS011;27051;50.376;19.152;2023-03-01T00:41:11;147.80;;;62.00;;
41305;SDS011;27051;50.376;19.152;2023-03-01T00:43:38;151.40;;;62.90;;
41305;SDS011;27051;50.376;19.152;2023-03-01T00:46:05;145.00;;;63.50;;
41305;SDS011;27051;50.376;19.152;2023-03-01T00:48:34;149.70;;;63.70;;
41305;SDS011;27051;50.376;19.152;2023-03-01T00:51:05;151.30;;;60.50;;
41305;SDS011;27051;50.376;19.152;2023-03-01T00:53:33;146.70;;;61.00;;
41305;SDS011;27051;50.376;19.152;2023-03-01T00:55:59;152.70;;;61.50;;
41305;SDS011;27051;50.376;19.152;2023-03-01T00:58:25;140.30;;;56.40;;
41305;SDS011;27051;50.376;19.152;2023-03-01T01:00:52;122.90;;;54.80;;
41305;SDS011;27051;50.376;19.152;2023-03-01T01:03:18;137.80;;;58.40;;
41305;SDS011;27051;50.376;19.152;2023-03-01T01:05:44;148.10;;;60.30;;
41305;SDS011;27051;50.376;19.152;2023-03-01T01:08:11;145.50;;;59.60;;
41305;SDS011;27051;50.376;19.152;2023-03-01T01:10:37;143.40;;;58.60;;
41305;SDS011;27051;50.376;19.152;2023-03-01T01:13:03;141.10;;;61.20;;
41305;SDS011;27051;50.376;19.152;2023-03-01T01:15:33;139.40;;;59.60;;
41305;SDS011;27051;50.376;19.152;2023-03-01T01:18:00;150.20;;;60.90;;
41305;SDS011;27051;50.376;19.152;2023-03-01T01:20:26;154.10;;;63.30;;
41305;SDS011;27051;50.376;19.152;2023-03-01T01:22:53;120.60;;;52.10;;
41305;SDS011;27051;50.376;19.152;2023-03-01T01:25:19;125.50;;;53.10;;
41305;SDS011;27051;50.376;19.152;2023-03-01T01:27:45;120.00;;;52.10;;
41305;SDS011;27051;50.376;19.152;2023-03-01T01:30:11;114.00;;;49.70;;
41305;SDS011;27051;50.376;19.152;2023-03-01T01:32:38;118.90;;;48.30;;
41305;SDS011;27051;50.376;19.152;2023-03-01T01:35:04;114.80;;;48.10;;
41305;SDS011;27051;50.376;19.152;2023-03-01T01:37:30;104.10;;;46.50;;
41305;SDS011;27051;50.376;19.152;2023-03-01T01:40:00;106.20;;;46.00;;
41305;SDS011;27051;50.376;19.152;2023-03-01T01:42:27;112.60;;;48.90;;
41305;SDS011;27051;50.376;19.152;2023-03-01T01:45:23;115.20;;;50.40;;
41305;SDS011;27051;50.376;19.152;2023-03-01T01:48:07;113.40;;;48.00;;
41305;SDS011;27051;50.376;19.152;2023-03-01T01:50:38;109.90;;;44.60;;
41305;SDS011;27051;50.376;19.152;2023-03-01T01:53:07;115.00;;;47.10;;
41305;SDS011;27051;50.376;19.152;2023-03-01T01:55:39;105.50;;;44.70;;
41305;SDS011;27051;50.376;19.152;2023-03-01T01:58:09;113.70;;;48.10;;
41305;SDS011;27051;50.376;19.152;2023-03-01T02:00:36;115.80;;;47.20;;
41305;SDS011;27051;50.376;19.152;2023-03-01T02:03:04;94.50;;;43.90;;
41305;SDS011;27051;50.376;19.152;2023-03-01T02:08:15;94.40;;;41.10;;
41305;SDS011;27051;50.376;19.152;2023-03-01T02:10:44;85.40;;;37.70;;
41305;SDS011;27051;50.376;19.152;2023-03-01T02:13:11;91.30;;;39.10;;
41305;SDS011;27051;50.376;19.152;2023-03-01T02:15:38;98.80;;;41.30;;
41305;SDS011;27051;50.376;19.152;2023-03-01T02:18:06;99.40;;;44.90;;
41305;SDS011;27051;50.376;19.152;2023-03-01T02:23:00;102.30;;;42.90;;
41305;SDS011;27051;50.376;19.152;2023-03-01T02:25:47;101.60;;;43.30;;
41305;SDS011;27051;50.376;19.152;2023-03-01T02:28:25;99.50;;;44.30;;
41305;SDS011;27051;50.376;19.152;2023-03-01T02:30:52;191.20;;;78.20;;
41305;SDS011;27051;50.376;19.152;2023-03-01T02:33:19;148.90;;;59.90;;
41305;SDS011;27051;50.376;19.152;2023-03-01T02:35:45;112.10;;;45.10;;
41305;SDS011;27051;50.376;19.152;2023-03-01T02:38:11;106.60;;;44.50;;
41305;SDS011;27051;50.376;19.152;2023-03-01T02:40:37;101.30;;;42.30;;
41305;SDS011;27051;50.376;19.152;2023-03-01T02:43:04;96.00;;;39.90;;
41305;SDS011;27051;50.376;19.152;2023-03-01T02:45:34;97.20;;;42.30;;
41305;SDS011;27051;50.376;19.152;2023-03-01T02:48:00;103.10;;;41.30;;
41305;SDS011;27051;50.376;19.152;2023-03-01T02:53:04;109.50;;;47.90;;
41305;SDS011;27051;50.376;19.152;2023-03-01T02:55:38;95.10;;;42.60;;
41305;SDS011;27051;50.376;19.152;2023-03-01T02:58:05;93.60;;;40.70;;
41305;SDS011;27051;50.376;19.152;2023-03-01T03:00:33;90.00;;;40.80;;
41305;SDS011;27051;50.376;19.152;2023-03-01T03:03:01;87.20;;;40.30;;
41305;SDS011;27051;50.376;19.152;2023-03-01T03:05:29;93.70;;;41.00;;
41305;SDS011;27051;50.376;19.152;2023-03-01T03:07:56;88.90;;;39.90;;
41305;SDS011;27051;50.376;19.152;2023-03-01T03:10:25;86.90;;;41.20;;
41305;SDS011;27051;50.376;19.152;2023-03-01T03:12:54;93.90;;;40.10;;
41305;SDS011;27051;50.376;19.152;2023-03-01T03:15:22;91.00;;;41.00;;
41305;SDS011;27051;50.376;19.152;2023-03-01T03:17:49;93.30;;;42.20;;
41305;SDS011;27051;50.376;19.152;2023-03-01T03:20:17;106.40;;;42.10;;
41305;SDS011;27051;50.376;19.152;2023-03-01T03:22:46;100.20;;;43.10;;
41305;SDS011;27051;50.376;19.152;2023-03-01T03:25:14;95.60;;;41.30;;
41305;SDS011;27051;50.376;19.152;2023-03-01T03:27:42;93.50;;;41.30;;
41305;SDS011;27051;50.376;19.152;2023-03-01T03:30:10;90.70;;;42.40;;
41305;SDS011;27051;50.376;19.152;2023-03-01T03:32:38;99.50;;;44.90;;
41305;SDS011;27051;50.376;19.152;2023-03-01T03:35:06;97.10;;;44.80;;
41305;SDS011;27051;50.376;19.152;2023-03-01T03:37:33;104.60;;;44.90;;
41305;SDS011;27051;50.376;19.152;2023-03-01T03:39:59;107.00;;;47.30;;
41305;SDS011;27051;50.376;19.152;2023-03-01T03:42:25;100.80;;;44.40;;
41305;SDS011;27051;50.376;19.152;2023-03-01T03:44:51;103.90;;;44.50;;
41305;SDS011;27051;50.376;19.152;2023-03-01T03:47:18;100.10;;;44.90;;
41305;SDS011;27051;50.376;19.152;2023-03-01T03:49:44;104.50;;;48.10;;
41305;SDS011;27051;50.376;19.152;2023-03-01T03:52:10;98.30;;;43.40;;
41305;SDS011;27051;50.376;19.152;2023-03-01T03:54:36;101.00;;;45.30;;
41305;SDS011;27051;50.376;19.152;2023-03-01T03:57:02;94.60;;;43.00;;
41305;SDS011;27051;50.376;19.152;2023-03-01T03:59:28;104.10;;;43.90;;
41305;SDS011;27051;50.376;19.152;2023-03-01T04:01:54;99.10;;;45.50;;
41305;SDS011;27051;50.376;19.152;2023-03-01T04:04:20;97.90;;;43.80;;
41305;SDS011;27051;50.376;19.152;2023-03-01T04:06:47;98.40;;;44.40;;
41305;SDS011;27051;50.376;19.152;2023-03-01T04:09:13;99.10;;;45.00;;
41305;SDS011;27051;50.376;19.152;2023-03-01T04:11:39;98.40;;;44.20;;
41305;SDS011;27051;50.376;19.152;2023-03-01T04:14:05;105.80;;;46.70;;
41305;SDS011;27051;50.376;19.152;2023-03-01T04:16:31;113.80;;;53.30;;
41305;SDS011;27051;50.376;19.152;2023-03-01T04:18:57;104.40;;;43.30;;
41305;SDS011;27051;50.376;19.152;2023-03-01T04:21:24;89.30;;;39.40;;
41305;SDS011;27051;50.376;19.152;2023-03-01T04:23:50;93.70;;;42.50;;
41305;SDS011;27051;50.376;19.152;2023-03-01T04:26:16;91.20;;;41.40;;
41305;SDS011;27051;50.376;19.152;2023-03-01T04:28:42;87.10;;;41.40;;
41305;SDS011;27051;50.376;19.152;2023-03-01T04:31:10;82.30;;;38.70;;
41305;SDS011;27051;50.376;19.152;2023-03-01T04:33:42;88.90;;;39.00;;
41305;SDS011;27051;50.376;19.152;2023-03-01T04:36:10;87.80;;;39.30;;
41305;SDS011;27051;50.376;19.152;2023-03-01T04:38:37;97.60;;;44.70;;
41305;SDS011;27051;50.376;19.152;2023-03-01T04:41:05;93.90;;;42.50;;
41305;SDS011;27051;50.376;19.152;2023-03-01T04:43:33;85.60;;;37.90;;
41305;SDS011;27051;50.376;19.152;2023-03-01T04:46:00;90.60;;;39.30;;
41305;SDS011;27051;50.376;19.152;2023-03-01T04:48:28;82.00;;;37.20;;
41305;SDS011;27051;50.376;19.152;2023-03-01T04:50:54;84.50;;;38.10;;
41305;SDS011;27051;50.376;19.152;2023-03-01T04:53:20;83.10;;;38.00;;
41305;SDS011;27051;50.376;19.152;2023-03-01T04:55:46;89.30;;;40.80;;
41305;SDS011;27051;50.376;19.152;2023-03-01T04:58:12;89.10;;;38.60;;
41305;SDS011;27051;50.376;19.152;2023-03-01T05:00:39;93.70;;;40.20;;
41305;SDS011;27051;50.376;19.152;2023-03-01T05:03:05;89.10;;;40.50;;
41305;SDS011;27051;50.376;19.152;2023-03-01T05:05:32;94.60;;;39.70;;
41305;SDS011;27051;50.376;19.152;2023-03-01T05:08:00;92.70;;;40.00;;
41305;SDS011;27051;50.376;19.152;2023-03-01T05:10:29;96.40;;;41.30;;
41305;SDS011;27051;50.376;19.152;2023-03-01T05:12:57;89.20;;;39.00;;
41305;SDS011;27051;50.376;19.152;2023-03-01T05:15:28;95.90;;;40.80;;
41305;SDS011;27051;50.376;19.152;2023-03-01T05:17:57;102.50;;;43.50;;
41305;SDS011;27051;50.376;19.152;2023-03-01T05:20:25;95.40;;;40.70;;
41305;SDS011;27051;50.376;19.152;2023-03-01T05:22:52;95.20;;;42.00;;
41305;SDS011;27051;50.376;19.152;2023-03-01T05:25:21;91.50;;;38.10;;
41305;SDS011;27051;50.376;19.152;2023-03-01T05:27:47;83.00;;;35.10;;
41305;SDS011;27051;50.376;19.152;2023-03-01T05:30:14;84.40;;;38.00;;
41305;SDS011;27051;50.376;19.152;2023-03-01T05:32:44;86.70;;;39.80;;
41305;SDS011;27051;50.376;19.152;2023-03-01T05:35:13;82.10;;;37.60;;
41305;SDS011;27051;50.376;19.152;2023-03-01T05:37:43;92.90;;;38.50;;
41305;SDS011;27051;50.376;19.152;2023-03-01T05:40:11;102.40;;;41.20;;
41305;SDS011;27051;50.376;19.152;2023-03-01T05:42:48;90.10;;;41.80;;
41305;SDS011;27051;50.376;19.152;2023-03-01T05:45:24;96.50;;;42.30;;
41305;SDS011;27051;50.376;19.152;2023-03-01T05:47:51;97.60;;;42.90;;
41305;SDS011;27051;50.376;19.152;2023-03-01T05:50:22;106.40;;;53.20;;
41305;SDS011;27051;50.376;19.152;2023-03-01T05:52:51;115.50;;;55.50;;
41305;SDS011;27051;50.376;19.152;2023-03-01T05:55:23;104.90;;;46.60;;
41305;SDS011;27051;50.376;19.152;2023-03-01T05:57:49;84.20;;;41.00;;
41305;SDS011;27051;50.376;19.152;2023-03-01T06:00:16;91.90;;;38.40;;
41305;SDS011;27051;50.376;19.152;2023-03-01T06:02:43;96.10;;;39.00;;
41305;SDS011;27051;50.376;19.152;2023-03-01T06:05:10;89.40;;;38.80;;
41305;SDS011;27051;50.376;19.152;2023-03-01T06:07:39;91.50;;;41.40;;
41305;SDS011;27051;50.376;19.152;2023-03-01T06:10:06;88.20;;;38.40;;
41305;SDS011;27051;50.376;19.152;2023-03-01T06:12:34;90.70;;;39.80;;
41305;SDS011;27051;50.376;19.152;2023-03-01T06:15:02;87.80;;;39.20;;
41305;SDS011;27051;50.376;19.152;2023-03-01T06:17:29;95.50;;;42.60;;
41305;SDS011;27051;50.376;19.152;2023-03-01T06:19:56;99.80;;;44.20;;
41305;SDS011;27051;50.376;19.152;2023-03-01T06:22:22;95.20;;;43.20;;
41305;SDS011;27051;50.376;19.152;2023-03-01T06:24:48;105.20;;;46.30;;
41305;SDS011;27051;50.376;19.152;2023-03-01T06:27:14;97.00;;;44.80;;
41305;SDS011;27051;50.376;19.152;2023-03-01T06:29:40;98.10;;;46.10;;
41305;SDS011;27051;50.376;19.152;2023-03-01T06:32:06;96.20;;;47.50;;
41305;SDS011;27051;50.376;19.152;2023-03-01T06:34:33;99.20;;;47.20;;
41305;SDS011;27051;50.376;19.152;2023-03-01T06:36:59;96.50;;;45.00;;
41305;SDS011;27051;50.376;19.152;2023-03-01T06:39:27;103.00;;;45.40;;
41305;SDS011;27051;50.376;19.152;2023-03-01T06:41:53;101.00;;;46.80;;
41305;SDS011;27051;50.376;19.152;2023-03-01T06:44:19;97.30;;;47.50;;
41305;SDS011;27051;50.376;19.152;2023-03-01T06:46:45;98.60;;;46.40;;
41305;SDS011;27051;50.376;19.152;2023-03-01T06:49:11;96.50;;;46.40;;
41305;SDS011;27051;50.376;19.152;2023-03-01T06:51:37;93.20;;;45.20;;
41305;SDS011;27051;50.376;19.152;2023-03-01T06:54:04;94.30;;;44.30;;
41305;SDS011;27051;50.376;19.152;2023-03-01T06:56:30;86.90;;;40.50;;
41305;SDS011;27051;50.376;19.152;2023-03-01T06:58:57;88.40;;;42.60;;
41305;SDS011;27051;50.376;19.152;2023-03-01T07:01:24;90.70;;;41.60;;
41305;SDS011;27051;50.376;19.152;2023-03-01T07:03:50;82.90;;;41.10;;
41305;SDS011;27051;50.376;19.152;2023-03-01T07:06:16;95.70;;;42.90;;
41305;SDS011;27051;50.376;19.152;2023-03-01T07:08:42;87.60;;;40.30;;
41305;SDS011;27051;50.376;19.152;2023-03-01T07:11:08;93.20;;;43.60;;
41305;SDS011;27051;50.376;19.152;2023-03-01T07:13:35;94.10;;;43.80;;
41305;SDS011;27051;50.376;19.152;2023-03-01T07:16:01;83.80;;;39.90;;
41305;SDS011;27051;50.376;19.152;2023-03-01T07:18:27;68.20;;;32.00;;
41305;SDS011;27051;50.376;19.152;2023-03-01T07:20:53;76.70;;;36.80;;
41305;SDS011;27051;50.376;19.152;2023-03-01T07:23:19;83.10;;;39.30;;
41305;SDS011;27051;50.376;19.152;2023-03-01T07:25:51;74.20;;;36.40;;
41305;SDS011;27051;50.376;19.152;2023-03-01T07:28:18;76.60;;;35.80;;
41305;SDS011;27051;50.376;19.152;2023-03-01T07:30:44;89.20;;;39.80;;
41305;SDS011;27051;50.376;19.152;2023-03-01T07:33:10;79.30;;;39.50;;
41305;SDS011;27051;50.376;19.152;2023-03-01T07:35:36;86.30;;;39.10;;
41305;SDS011;27051;50.376;19.152;2023-03-01T07:38:02;92.10;;;44.70;;
41305;SDS011;27051;50.376;19.152;2023-03-01T07:40:29;89.70;;;42.30;;
41305;SDS011;27051;50.376;19.152;2023-03-01T07:42:56;82.50;;;39.10;;
41305;SDS011;27051;50.376;19.152;2023-03-01T07:45:23;80.60;;;38.00;;
41305;SDS011;27051;50.376;19.152;2023-03-01T07:47:50;93.20;;;42.00;;
41305;SDS011;27051;50.376;19.152;2023-03-01T07:50:20;92.70;;;42.80;;
41305;SDS011;27051;50.376;19.152;2023-03-01T07:52:47;89.30;;;42.80;;
41305;SDS011;27051;50.376;19.152;2023-03-01T07:55:15;86.20;;;39.70;;
41305;SDS011;27051;50.376;19.152;2023-03-01T07:57:42;78.30;;;40.10;;
41305;SDS011;27051;50.376;19.152;2023-03-01T08:00:10;75.00;;;37.70;;
41305;SDS011;27051;50.376;19.152;2023-03-01T08:02:37;78.80;;;36.80;;
41305;SDS011;27051;50.376;19.152;2023-03-01T08:05:03;69.90;;;33.80;;
41305;SDS011;27051;50.376;19.152;2023-03-01T08:07:30;66.30;;;31.40;;
41305;SDS011;27051;50.376;19.152;2023-03-01T08:09:56;61.60;;;30.70;;
41305;SDS011;27051;50.376;19.152;2023-03-01T08:12:22;59.40;;;30.00;;
41305;SDS011;27051;50.376;19.152;2023-03-01T08:14:48;58.40;;;29.80;;
41305;SDS011;27051;50.376;19.152;2023-03-01T08:17:14;45.50;;;25.30;;
41305;SDS011;27051;50.376;19.152;2023-03-01T08:19:42;43.00;;;22.50;;
41305;SDS011;27051;50.376;19.152;2023-03-01T08:22:08;44.30;;;21.80;;
41305;SDS011;27051;50.376;19.152;2023-03-01T08:24:34;40.50;;;20.70;;
41305;SDS011;27051;50.376;19.152;2023-03-01T08:27:01;27.70;;;14.30;;
41305;SDS011;27051;50.376;19.152;2023-03-01T08:29:27;38.50;;;19.20;;
41305;SDS011;27051;50.376;19.152;2023-03-01T08:31:53;29.50;;;16.60;;
41305;SDS011;27051;50.376;19.152;2023-03-01T08:34:19;27.70;;;14.20;;
41305;SDS011;27051;50.376;19.152;2023-03-01T08:36:46;29.30;;;13.80;;
41305;SDS011;27051;50.376;19.152;2023-03-01T08:39:13;34.90;;;18.30;;
41305;SDS011;27051;50.376;19.152;2023-03-01T08:41:41;31.20;;;16.50;;
41305;SDS011;27051;50.376;19.152;2023-03-01T08:44:08;33.80;;;16.60;;
41305;SDS011;27051;50.376;19.152;2023-03-01T08:46:37;34.50;;;18.80;;
41305;SDS011;27051;50.376;19.152;2023-03-01T08:49:05;34.70;;;17.60;;
41305;SDS011;27051;50.376;19.152;2023-03-01T08:51:37;29.20;;;16.90;;
41305;SDS011;27051;50.376;19.152;2023-03-01T08:54:04;32.00;;;17.00;;
41305;SDS011;27051;50.376;19.152;2023-03-01T08:56:38;33.10;;;16.80;;
41305;SDS011;27051;50.376;19.152;2023-03-01T08:59:05;36.50;;;16.50;;
41305;SDS011;27051;50.376;19.152;2023-03-01T09:01:31;31.60;;;16.80;;
41305;SDS011;27051;50.376;19.152;2023-03-01T09:03:57;28.70;;;14.90;;
41305;SDS011;27051;50.376;19.152;2023-03-01T09:06:23;29.50;;;15.20;;
41305;SDS011;27051;50.376;19.152;2023-03-01T09:08:52;29.90;;;14.90;;
41305;SDS011;27051;50.376;19.152;2023-03-01T09:11:20;24.90;;;13.70;;
41305;SDS011;27051;50.376;19.152;2023-03-01T09:13:47;27.00;;;14.50;;
41305;SDS011;27051;50.376;19.152;2023-03-01T09:16:17;30.80;;;16.20;;
41305;SDS011;27051;50.376;19.152;2023-03-01T09:18:47;31.10;;;16.10;;
41305;SDS011;27051;50.376;19.152;2023-03-01T09:21:16;31.60;;;16.20;;
41305;SDS011;27051;50.376;19.152;2023-03-01T09:23:44;31.00;;;16.30;;
41305;SDS011;27051;50.376;19.152;2023-03-01T09:26:12;30.90;;;15.70;;
41305;SDS011;27051;50.376;19.152;2023-03-01T09:28:41;27.70;;;14.60;;
41305;SDS011;27051;50.376;19.152;2023-03-01T09:31:07;32.10;;;16.10;;
41305;SDS011;27051;50.376;19.152;2023-03-01T09:33:33;30.90;;;14.00;;
41305;SDS011;27051;50.376;19.152;2023-03-01T09:36:03;25.00;;;12.70;;
41305;SDS011;27051;50.376;19.152;2023-03-01T09:38:32;24.40;;;12.30;;
41305;SDS011;27051;50.376;19.152;2023-03-01T09:40:59;30.60;;;12.30;;
41305;SDS011;27051;50.376;19.152;2023-03-01T09:43:31;25.80;;;12.60;;
41305;SDS011;27051;50.376;19.152;2023-03-01T09:46:09;27.80;;;13.70;;
41305;SDS011;27051;50.376;19.152;2023-03-01T09:48:48;28.80;;;15.20;;
41305;SDS011;27051;50.376;19.152;2023-03-01T09:51:19;26.60;;;15.20;;
41305;SDS011;27051;50.376;19.152;2023-03-01T09:53:51;28.10;;;15.40;;
41305;SDS011;27051;50.376;19.152;2023-03-01T09:56:22;26.90;;;15.00;;
41305;SDS011;27051;50.376;19.152;2023-03-01T10:07:00;30.10;;;16.60;;
41305;SDS011;27051;50.376;19.152;2023-03-01T10:09:29;31.60;;;16.40;;
41305;SDS011;27051;50.376;19.152;2023-03-01T10:12:00;34.20;;;18.80;;
41305;SDS011;27051;50.376;19.152;2023-03-01T10:17:04;37.40;;;18.60;;
41305;SDS011;27051;50.376;19.152;2023-03-01T10:19:39;37.60;;;21.10;;
41305;SDS011;27051;50.376;19.152;2023-03-01T10:22:17;39.00;;;19.80;;
41305;SDS011;27051;50.376;19.152;2023-03-01T10:24:44;35.50;;;19.60;;
41305;SDS011;27051;50.376;19.152;2023-03-01T10:27:34;35.40;;;18.90;;
41305;SDS011;27051;50.376;19.152;2023-03-01T10:32:35;36.70;;;19.10;;
41305;SDS011;27051;50.376;19.152;2023-03-01T10:35:13;35.70;;;19.40;;
41305;SDS011;27051;50.376;19.152;2023-03-01T10:40:35;33.20;;;18.90;;
41305;SDS011;27051;50.376;19.152;2023-03-01T10:43:05;33.00;;;19.20;;
41305;SDS011;27051;50.376;19.152;2023-03-01T10:45:36;33.10;;;18.20;;
41305;SDS011;27051;50.376;19.152;2023-03-01T10:48:23;32.50;;;18.60;;
41305;SDS011;27051;50.376;19.152;2023-03-01T10:53:28;29.30;;;15.80;;
41305;SDS011;27051;50.376;19.152;2023-03-01T10:56:03;26.90;;;15.80;;
41305;SDS011;27051;50.376;19.152;2023-03-01T10:58:29;27.60;;;15.10;;
41305;SDS011;27051;50.376;19.152;2023-03-01T11:00:58;25.50;;;16.10;;
41305;SDS011;27051;50.376;19.152;2023-03-01T11:03:31;24.30;;;15.10;;
41305;SDS011;27051;50.376;19.152;2023-03-01T11:08:32;27.90;;;15.50;;
41305;SDS011;27051;50.376;19.152;2023-03-01T11:11:04;25.90;;;17.50;;
41305;SDS011;27051;50.376;19.152;2023-03-01T11:24:29;22.80;;;16.60;;
41305;SDS011;27051;50.376;19.152;2023-03-01T11:27:01;24.30;;;14.30;;
41305;SDS011;27051;50.376;19.152;2023-03-01T11:29:40;20.70;;;13.40;;
41305;SDS011;27051;50.376;19.152;2023-03-01T11:32:11;22.80;;;15.00;;
41305;SDS011;27051;50.376;19.152;2023-03-01T11:37:16;19.60;;;13.30;;
41305;SDS011;27051;50.376;19.152;2023-03-01T11:39:58;19.80;;;12.40;;
41305;SDS011;27051;50.376;19.152;2023-03-01T11:42:38;18.10;;;10.70;;
41305;SDS011;27051;50.376;19.152;2023-03-01T11:45:12;18.00;;;11.50;;
41305;SDS011;27051;50.376;19.152;2023-03-01T11:50:40;19.80;;;13.00;;
41305;SDS011;27051;50.376;19.152;2023-03-01T11:53:47;17.50;;;11.30;;
41305;SDS011;27051;50.376;19.152;2023-03-01T11:56:16;15.90;;;10.30;;
41305;SDS011;27051;50.376;19.152;2023-03-01T12:01:36;16.30;;;10.70;;
41305;SDS011;27051;50.376;19.152;2023-03-01T12:09:54;21.90;;;13.50;;
41305;SDS011;27051;50.376;19.152;2023-03-01T12:12:32;19.10;;;13.00;;
41305;SDS011;27051;50.376;19.152;2023-03-01T12:20:36;17.80;;;11.00;;
41305;SDS011;27051;50.376;19.152;2023-03-01T12:28:35;13.90;;;10.00;;
41305;SDS011;27051;50.376;19.152;2023-03-01T12:33:45;15.40;;;9.60;;
41305;SDS011;27051;50.376;19.152;2023-03-01T12:36:24;16.40;;;10.00;;
41305;SDS011;27051;50.376;19.152;2023-03-01T12:48:03;18.90;;;11.60;;
41305;SDS011;27051;50.376;19.152;2023-03-01T12:50:57;15.80;;;11.20;;
41305;SDS011;27051;50.376;19.152;2023-03-01T12:53:39;15.40;;;11.10;;
41305;SDS011;27051;50.376;19.152;2023-03-01T12:56:10;15.30;;;11.10;;
41305;SDS011;27051;50.376;19.152;2023-03-01T12:58:42;15.60;;;10.60;;
41305;SDS011;27051;50.376;19.152;2023-03-01T13:04:05;16.70;;;11.20;;
41305;SDS011;27051;50.376;19.152;2023-03-01T13:15:32;18.10;;;12.70;;
41305;SDS011;27051;50.376;19.152;2023-03-01T13:31:11;18.00;;;13.70;;
41305;SDS011;27051;50.376;19.152;2023-03-01T13:33:59;24.00;;;17.30;;
41305;SDS011;27051;50.376;19.152;2023-03-01T13:41:49;18.90;;;13.80;;
41305;SDS011;27051;50.376;19.152;2023-03-01T13:46:51;19.40;;;13.80;;
41305;SDS011;27051;50.376;19.152;2023-03-01T13:49:20;18.90;;;13.80;;
41305;SDS011;27051;50.376;19.152;2023-03-01T13:51:48;29.60;;;26.20;;
41305;SDS011;27051;50.376;19.152;2023-03-01T13:54:18;19.40;;;14.40;;
41305;SDS011;27051;50.376;19.152;2023-03-01T13:56:52;16.20;;;13.40;;
41305;SDS011;27051;50.376;19.152;2023-03-01T13:59:20;21.10;;;14.70;;
41305;SDS011;27051;50.376;19.152;2023-03-01T14:01:54;23.70;;;14.90;;
41305;SDS011;27051;50.376;19.152;2023-03-01T14:04:26;21.10;;;14.20;;
41305;SDS011;27051;50.376;19.152;2023-03-01T14:07:08;20.00;;;13.30;;
41305;SDS011;27051;50.376;19.152;2023-03-01T14:09:34;19.60;;;14.20;;
41305;SDS011;27051;50.376;19.152;2023-03-01T14:12:15;20.60;;;13.40;;
41305;SDS011;27051;50.376;19.152;2023-03-01T14:14:56;20.40;;;14.20;;
41305;SDS011;27051;50.376;19.152;2023-03-01T14:20:28;17.50;;;12.60;;
41305;SDS011;27051;50.376;19.152;2023-03-01T14:22:55;18.80;;;13.50;;
41305;SDS011;27051;50.376;19.152;2023-03-01T14:25:35;18.90;;;12.90;;
41305;SDS011;27051;50.376;19.152;2023-03-01T14:30:34;15.50;;;11.40;;
41305;SDS011;27051;50.376;19.152;2023-03-01T14:33:18;17.00;;;12.20;;
41305;SDS011;27051;50.376;19.152;2023-03-01T14:38:34;15.20;;;11.50;;
41305;SDS011;27051;50.376;19.152;2023-03-01T14:41:13;17.50;;;12.50;;
41305;SDS011;27051;50.376;19.152;2023-03-01T14:43:43;17.80;;;11.90;;
41305;SDS011;27051;50.376;19.152;2023-03-01T14:46:22;15.50;;;11.30;;
41305;SDS011;27051;50.376;19.152;2023-03-01T14:48:53;17.20;;;11.50;;
41305;SDS011;27051;50.376;19.152;2023-03-01T14:51:23;16.50;;;11.30;;
41305;SDS011;27051;50.376;19.152;2023-03-01T14:53:49;17.20;;;11.50;;
41305;SDS011;27051;50.376;19.152;2023-03-01T14:56:17;16.80;;;11.00;;
41305;SDS011;27051;50.376;19.152;2023-03-01T14:58:43;16.30;;;10.70;;
41305;SDS011;27051;50.376;19.152;2023-03-01T15:01:12;20.50;;;12.00;;
41305;SDS011;27051;50.376;19.152;2023-03-01T15:03:48;17.10;;;10.70;;
41305;SDS011;27051;50.376;19.152;2023-03-01T15:06:17;17.80;;;10.40;;
41305;SDS011;27051;50.376;19.152;2023-03-01T15:08:46;14.90;;;9.30;;
41305;SDS011;27051;50.376;19.152;2023-03-01T15:11:27;13.20;;;8.50;;
41305;SDS011;27051;50.376;19.152;2023-03-01T15:16:53;18.40;;;9.40;;
41305;SDS011;27051;50.376;19.152;2023-03-01T15:19:19;15.90;;;8.60;;
41305;SDS011;27051;50.376;19.152;2023-03-01T15:21:51;14.30;;;8.00;;
41305;SDS011;27051;50.376;19.152;2023-03-01T15:24:22;17.20;;;8.30;;
41305;SDS011;27051;50.376;19.152;2023-03-01T15:26:52;15.60;;;8.30;;
41305;SDS011;27051;50.376;19.152;2023-03-01T15:29:22;19.60;;;9.50;;
41305;SDS011;27051;50.376;19.152;2023-03-01T15:31:58;17.80;;;9.50;;
41305;SDS011;27051;50.376;19.152;2023-03-01T15:34:45;20.50;;;10.30;;
41305;SDS011;27051;50.376;19.152;2023-03-01T15:37:36;18.30;;;10.80;;
41305;SDS011;27051;50.376;19.152;2023-03-01T15:40:00;24.40;;;12.50;;
41305;SDS011;27051;50.376;19.152;2023-03-01T15:45:20;21.10;;;10.40;;
41305;SDS011;27051;50.376;19.152;2023-03-01T15:47:50;20.80;;;9.70;;
41305;SDS011;27051;50.376;19.152;2023-03-01T15:50:23;20.80;;;9.20;;
41305;SDS011;27051;50.376;19.152;2023-03-01T15:52:51;17.70;;;9.20;;
41305;SDS011;27051;50.376;19.152;2023-03-01T15:55:20;19.60;;;9.20;;
41305;SDS011;27051;50.376;19.152;2023-03-01T15:57:48;21.30;;;9.90;;
41305;SDS011;27051;50.376;19.152;2023-03-01T16:00:15;20.00;;;9.60;;
41305;SDS011;27051;50.376;19.152;2023-03-01T16:02:42;23.20;;;10.20;;
41305;SDS011;27051;50.376;19.152;2023-03-01T16:05:28;28.00;;;11.10;;
41305;SDS011;27051;50.376;19.152;2023-03-01T16:07:57;25.80;;;10.60;;
41305;SDS011;27051;50.376;19.152;2023-03-01T16:10:23;22.80;;;10.40;;
41305;SDS011;27051;50.376;19.152;2023-03-01T16:12:50;25.90;;;11.40;;
41305;SDS011;27051;50.376;19.152;2023-03-01T16:15:21;27.50;;;11.60;;
41305;SDS011;27051;50.376;19.152;2023-03-01T16:17:50;23.40;;;12.50;;
41305;SDS011;27051;50.376;19.152;2023-03-01T16:20:17;26.10;;;12.20;;
41305;SDS011;27051;50.376;19.152;2023-03-01T16:22:44;26.70;;;13.80;;
41305;SDS011;27051;50.376;19.152;2023-03-01T16:25:11;32.00;;;14.20;;